Time;durP1;ratioP1;P1;durP2;ratioP2;P2;SDS_P1;SDS_P2;PMS_P1;PMS_P2;Temp;Humidity;BMP_temperature;BMP_pressure;BME280_temperature;BME280_humidity;BME280_pressure;Samples;Min_cycle;Max_cycle;Signal;HPM_P1;HPM_P2
2022/06/22 04:30:47;;;;;;;;;13.00;13.00;;;;;21.20;49.94;100603.38;5038272;28;45633;-71
2022/06/22 04:33:29;;;;;;;;;11.50;9.75;;;;;21.17;50.35;100595.50;5008506;28;45390;-71
2022/06/22 04:36:00;;;;;;;;;13.50;11.75;;;;;21.14;50.75;100580.25;5017216;28;45290;-72
2022/06/22 04:38:37;;;;;;;;;11.00;11.00;;;;;21.21;50.31;100586.03;5017332;28;45184;-73
2022/06/22 04:41:30;;;;;;;;;13.25;12.00;;;;;21.28;50.05;100597.22;5016944;28;45484;-72
2022/06/22 04:44:00;;;;;;;;;9.00;9.00;;;;;21.26;50.30;100570.13;5016614;28;46145;-71
2022/06/22 04:46:34;;;;;;;;;11.50;9.00;;;;;21.29;50.31;100575.28;5015755;28;45622;-73
2022/06/22 04:49:26;;;;;;;;;12.00;12.00;;;;;21.30;49.95;100582.44;5017110;28;45364;-73
2022/06/22 04:51:59;;;;;;;;;13.00;12.00;;;;;21.32;50.03;100601.41;5016766;28;45359;-71
2022/06/22 04:54:30;;;;;;;;;13.50;12.25;;;;;21.32;50.04;100593.22;5016781;28;45309;-71
2022/06/22 04:56:58;;;;;;;;;12.25;10.75;;;;;21.25;50.35;100590.22;5016682;28;45535;-71
2022/06/22 04:59:25;;;;;;;;;12.50;11.00;;;;;21.28;50.29;100594.50;5017022;28;45309;-70
2022/06/22 05:02:00;;;;;;;;;11.25;11.25;;;;;21.30;49.99;100584.31;5016838;28;45538;-71
2022/06/22 05:04:34;;;;;;;;;11.75;11.75;;;;;21.27;50.00;100581.84;5016781;28;45472;-71
2022/06/22 05:07:06;;;;;;;;;12.25;11.00;;;;;21.30;50.15;100581.59;5016782;28;45444;-74
2022/06/22 05:09:53;;;;;;;;;13.50;10.25;;;;;21.29;49.97;100577.13;5016635;28;45329;-71
2022/06/22 05:12:22;;;;;;;;;14.75;12.50;;;;;21.26;50.19;100575.56;4999031;28;45543;-69
2022/06/22 05:14:50;;;;;;;;;11.50;11.50;;;;;21.30;49.96;100585.19;4996570;28;45719;-72
2022/06/22 05:17:32;;;;;;;;;13.00;12.50;;;;;21.30;50.07;100567.94;4978558;28;45323;-75
2022/06/22 05:20:17;;;;;;;;;15.00;11.75;;;;;21.34;50.18;100577.59;5004836;28;45388;-74
2022/06/22 05:22:42;;;;;;;;;16.00;11.75;;;;;21.35;49.92;100576.59;5016261;28;45417;-74
2022/06/22 05:25:12;;;;;;;;;14.75;12.50;;;;;21.33;49.69;100570.41;4998359;28;45251;-73
2022/06/22 05:27:53;;;;;;;;;14.00;12.50;;;;;21.44;49.87;100583.88;4998395;28;45953;-73
2022/06/22 05:30:20;;;;;;;;;12.50;12.50;;;;;21.46;49.58;100585.47;5016320;28;45373;-73
2022/06/22 05:32:59;;;;;;;;;16.25;14.75;;;;;21.36;49.88;100562.78;5023105;28;45651;-71
2022/06/22 05:35:42;;;;;;;;;12.00;11.00;;;;;21.40;49.71;100558.78;5034149;28;46370;-72
2022/06/22 05:38:10;;;;;;;;;17.75;15.00;;;;;21.47;49.56;100578.13;5036526;28;45463;-72
2022/06/22 05:40:38;;;;;;;;;13.75;12.50;;;;;21.46;49.33;100573.69;5035898;28;45402;-70
2022/06/22 05:43:05;;;;;;;;;11.75;11.50;;;;;21.50;49.59;100580.59;5033857;28;46969;-74
2022/06/22 05:45:37;;;;;;;;;14.75;12.00;;;;;21.48;49.43;100577.13;5035595;28;46080;-68
2022/06/22 05:48:04;;;;;;;;;14.00;11.50;;;;;21.45;49.24;100581.00;5035657;28;45222;-69
2022/06/22 05:50:52;;;;;;;;;16.25;12.00;;;;;21.40;49.41;100591.50;5035807;28;45384;-68
2022/06/22 05:54:00;;;;;;;;;10.50;9.75;;;;;21.37;49.98;100582.72;5035464;28;45523;-69
2022/06/22 05:56:38;;;;;;;;;13.25;10.50;;;;;21.24;49.70;100563.06;5003481;28;47638;-68
2022/06/22 05:59:24;;;;;;;;;10.00;10.00;;;;;21.34;49.65;100577.59;5035478;28;45357;-69
2022/06/22 06:02:14;;;;;;;;;11.00;11.00;;;;;21.32;50.12;100580.44;5035716;28;45377;-67
2022/06/22 06:05:03;;;;;;;;;16.25;16.25;;;;;21.27;50.00;100570.94;5035417;28;45376;-68
2022/06/22 06:07:43;;;;;;;;;11.00;11.00;;;;;21.31;50.32;100569.69;5035661;28;45957;-68
2022/06/22 06:10:25;;;;;;;;;10.50;10.50;;;;;21.30;50.11;100568.81;5035036;28;45251;-68
2022/06/22 06:13:00;;;;;;;;;12.00;12.00;;;;;21.30;49.93;100567.94;5017829;28;45332;-69
2022/06/22 06:15:29;;;;;;;;;13.00;11.75;;;;;21.29;50.08;100578.00;5015230;28;45499;-69
2022/06/22 06:17:57;;;;;;;;;13.75;11.50;;;;;21.30;50.24;100584.31;5015354;28;45300;-68
2022/06/22 06:20:31;;;;;;;;;16.50;13.50;;;;;21.21;49.95;100580.56;5015065;28;45361;-69
2022/06/22 06:23:05;;;;;;;;;16.25;15.50;;;;;21.24;50.08;100590.34;5023135;28;45320;-68
2022/06/22 06:28:43;;;;;;;;;14.25;12.00;;;;;21.14;50.19;100577.53;5035413;28;45324;-67
2022/06/22 06:31:20;;;;;;;;;10.00;10.00;;;;;21.18;50.35;100593.66;5035303;28;45178;-68
2022/06/22 06:33:45;;;;;;;;;12.75;11.75;;;;;21.17;50.43;100578.25;5034999;28;45278;-68
2022/06/22 06:36:20;;;;;;;;;14.50;13.25;;;;;21.20;50.10;100581.56;5034962;28;45559;-69
2022/06/22 06:39:02;;;;;;;;;19.00;13.75;;;;;21.20;50.36;100577.97;5034672;28;45820;-68
2022/06/22 06:41:41;;;;;;;;;12.25;12.25;;;;;21.20;50.17;100592.47;5035365;28;45413;-67
2022/06/22 06:44:21;;;;;;;;;14.50;13.50;;;;;21.19;50.47;100588.03;5035307;28;45319;-69
2022/06/22 06:46:53;;;;;;;;;13.00;12.75;;;;;21.17;50.75;100580.97;5034564;28;45482;-68
2022/06/22 06:49:28;;;;;;;;;14.75;14.25;;;;;21.19;50.29;100587.16;5034694;28;47358;-70
2022/06/22 06:51:59;;;;;;;;;14.00;12.75;;;;;21.25;50.42;100590.22;5034912;28;45411;-67
2022/06/22 06:54:37;;;;;;;;;15.00;12.00;;;;;21.24;50.31;100579.44;5035011;28;45265;-69
2022/06/22 06:57:19;;;;;;;;;14.25;14.25;;;;;21.29;50.42;100586.19;5034781;28;45293;-69
2022/06/22 06:59:49;;;;;;;;;14.75;13.25;;;;;21.28;50.27;100576.28;5034757;28;46205;-68
2022/06/22 07:02:22;;;;;;;;;17.50;15.00;;;;;21.31;50.42;100595.09;5034632;28;45333;-68
2022/06/22 07:04:48;;;;;;;;;12.00;12.00;;;;;21.34;50.18;100596.66;5034339;28;45618;-69
2022/06/22 07:07:22;;;;;;;;;16.25;14.75;;;;;21.37;50.55;100599.09;5034781;28;45519;-67
2022/06/22 07:09:50;;;;;;;;;12.50;12.50;;;;;21.40;50.31;100590.63;5034390;28;46160;-69
2022/06/22 07:12:29;;;;;;;;;13.00;11.50;;;;;21.41;50.22;100589.63;5021886;28;45336;-68
2022/06/22 07:14:58;;;;;;;;;11.50;11.50;;;;;21.42;49.92;100588.63;5022354;28;45247;-69
2022/06/22 07:17:24;;;;;;;;;14.00;14.00;;;;;21.46;50.28;100590.91;5034566;28;45432;-68
2022/06/22 07:19:55;;;;;;;;;14.75;12.00;;;;;21.47;49.69;100592.63;5033995;28;46237;-68
2022/06/22 07:22:32;;;;;;;;;15.50;14.25;;;;;21.47;49.85;100592.63;5034419;28;45242;-70
2022/06/22 07:25:21;;;;;;;;;14.00;12.50;;;;;21.47;49.96;100584.47;5034523;28;45513;-68
2022/06/22 07:27:53;;;;;;;;;12.75;11.00;;;;;21.50;50.08;100586.03;5034376;28;45493;-68
2022/06/22 07:30:28;;;;;;;;;15.25;14.25;;;;;21.50;50.21;100580.59;5034202;28;45503;-69
2022/06/22 07:33:01;;;;;;;;;14.00;14.00;;;;;21.49;49.71;100581.59;5034030;28;45411;-69
2022/06/22 07:35:46;;;;;;;;;12.75;12.00;;;;;21.53;50.32;100591.19;5033836;28;45361;-70
2022/06/22 07:38:29;;;;;;;;;13.00;13.00;;;;;21.56;50.06;100593.66;5034149;28;45471;-68
2022/06/22 07:43:39;;;;;;;;;13.25;11.75;;;;;21.61;49.67;100596.78;5034092;28;45315;-69
2022/06/22 07:46:06;;;;;;;;;16.50;15.00;;;;;21.55;49.95;100594.66;5034137;28;46904;-68
2022/06/22 07:48:39;;;;;;;;;16.75;14.25;;;;;21.63;49.72;100602.09;5033464;28;45350;-68
2022/06/22 07:51:07;;;;;;;;;18.75;14.00;;;;;21.66;49.84;100612.75;5015764;28;47194;-68
2022/06/22 07:53:48;;;;;;;;;12.00;12.00;;;;;21.68;49.48;100611.59;5033632;28;45427;-68
2022/06/22 07:56:34;;;;;;;;;18.00;14.00;;;;;21.71;49.74;100597.66;5033916;28;45342;-68
2022/06/22 07:59:24;;;;;;;;;15.75;11.75;;;;;21.79;49.73;100602.38;5032973;28;45347;-68
2022/06/22 08:01:56;;;;;;;;;15.00;14.00;;;;;21.82;49.36;100613.88;5034294;28;45525;-67
2022/06/22 08:04:35;;;;;;;;;11.50;11.50;;;;;21.90;49.36;100614.00;5033590;28;45269;-68
2022/06/22 08:07:09;;;;;;;;;18.75;17.25;;;;;22.00;48.95;100615.88;5033990;28;45292;-69
2022/06/22 08:09:49;;;;;;;;;13.25;10.50;;;;;22.02;49.09;100608.44;5033299;28;45578;-69
2022/06/22 08:13:02;;;;;;;;;15.00;14.25;;;;;22.09;49.12;100618.59;5021759;28;46171;-69
2022/06/22 08:15:34;;;;;;;;;19.25;15.50;;;;;22.16;48.81;100613.41;4986964;28;45434;-69
2022/06/22 08:18:01;;;;;;;;;15.00;11.00;;;;;22.21;48.89;100619.28;5033184;28;45375;-69
2022/06/22 08:20:31;;;;;;;;;13.50;12.00;;;;;22.27;48.47;100619.56;5033119;28;45851;-68
2022/06/22 08:23:02;;;;;;;;;11.00;11.00;;;;;22.36;49.06;100617.81;5033768;28;45366;-68
2022/06/22 08:25:27;;;;;;;;;14.25;12.75;;;;;22.43;48.33;100623.53;5033443;28;45470;-70
2022/06/22 08:27:52;;;;;;;;;17.75;16.00;;;;;22.51;48.22;100626.38;5033714;28;45310;-69
2022/06/22 08:30:19;;;;;;;;;13.00;12.00;;;;;22.54;47.95;100624.19;5033178;28;53077;-70
2022/06/22 08:33:01;;;;;;;;;13.25;13.25;;;;;22.61;47.74;100625.34;5033250;28;46384;-68
2022/06/22 08:35:32;;;;;;;;;14.25;14.25;;;;;22.69;47.94;100623.72;5033126;28;45353;-70
2022/06/22 08:38:21;;;;;;;;;15.50;14.00;;;;;22.70;47.73;100628.16;5033596;28;45328;-70
2022/06/22 08:41:12;;;;;;;;;17.00;15.50;;;;;22.71;48.12;100621.69;4965421;28;47405;-69
2022/06/22 08:43:46;;;;;;;;;16.00;15.00;;;;;22.76;47.83;100633.06;5013511;28;45333;-68
2022/06/22 08:46:17;;;;;;;;;13.50;13.50;;;;;22.82;47.72;100629.72;5012889;28;45321;-69
2022/06/22 08:49:01;;;;;;;;;14.50;14.50;;;;;22.87;47.61;100625.53;5013216;28;45819;-69
2022/06/22 08:52:13;;;;;;;;;14.75;11.75;;;;;23.02;47.71;100618.53;5013300;28;45357;-69
2022/06/22 08:55:23;;;;;;;;;15.75;15.50;;;;;23.19;46.93;100613.22;4965980;28;45580;-67
2022/06/22 08:58:03;;;;;;;;;19.75;19.75;;;;;23.26;46.33;100620.66;4926369;28;45493;-69
2022/06/22 09:00:46;;;;;;;;;21.75;18.00;;;;;23.24;46.76;100589.88;5021783;28;45573;-68
2022/06/22 09:03:36;;;;;;;;;13.00;12.75;;;;;23.43;46.84;100612.63;5032964;28;45317;-70
2022/06/22 09:06:44;;;;;;;;;17.50;17.00;;;;;23.52;46.13;100615.31;5032969;28;45524;-69
2022/06/22 09:09:46;;;;;;;;;15.00;15.00;;;;;23.59;46.21;100619.13;5033102;28;45222;-69
2022/06/22 09:12:42;;;;;;;;;19.50;16.50;;;;;23.67;45.88;100626.56;5028323;28;45253;-68
2022/06/22 09:15:30;;;;;;;;;15.25;14.25;;;;;23.67;46.28;100616.47;5036385;28;45736;-68
2022/06/22 09:18:20;;;;;;;;;15.00;13.75;;;;;23.73;46.11;100613.09;5036277;28;45496;-69
2022/06/22 09:21:21;;;;;;;;;19.75;18.50;;;;;23.73;45.35;100615.81;5036286;28;45463;-68
2022/06/22 09:24:08;;;;;;;;;14.00;12.50;;;;;23.74;46.17;100614.81;5036536;28;45447;-67
2022/06/22 09:26:48;;;;;;;;;14.75;14.00;;;;;23.83;46.14;100621.22;5036017;28;45568;-69
2022/06/22 09:29:19;;;;;;;;;22.00;15.00;;;;;23.89;45.95;100614.28;5036185;28;46095;-69
2022/06/22 09:32:10;;;;;;;;;12.50;12.50;;;;;23.83;46.30;100609.41;5036048;28;45525;-69
2022/06/22 09:34:47;;;;;;;;;17.00;15.75;;;;;23.88;46.34;100620.75;5036011;28;45362;-69
2022/06/22 09:37:18;;;;;;;;;19.00;14.75;;;;;23.87;45.79;100625.38;5033636;28;45546;-69
2022/06/22 09:39:59;;;;;;;;;14.75;14.50;;;;;23.88;45.55;100626.25;5035524;28;45489;-67
2022/06/22 09:42:49;;;;;;;;;12.75;12.75;;;;;23.90;46.02;100626.94;5034823;28;45436;-68
2022/06/22 09:45:20;;;;;;;;;15.75;15.75;;;;;23.95;45.81;100625.44;5035038;28;45479;-70
2022/06/22 09:48:05;;;;;;;;;21.00;15.50;;;;;23.94;45.54;100614.63;5035778;28;45454;-69
2022/06/22 09:50:53;;;;;;;;;17.75;14.00;;;;;23.99;45.55;100609.53;5034639;28;45680;-69
2022/06/22 09:53:47;;;;;;;;;14.00;14.00;;;;;24.00;46.06;100608.50;5034848;28;45481;-69
2022/06/22 09:56:36;;;;;;;;;13.00;13.00;;;;;24.01;46.38;100615.72;5035588;28;45352;-69
2022/06/22 09:59:10;;;;;;;;;15.75;14.75;;;;;24.06;45.79;100619.72;5017785;28;45675;-69
2022/06/22 10:02:07;;;;;;;;;14.25;14.25;;;;;24.16;46.06;100621.50;5035731;28;45657;-67
2022/06/22 10:04:56;;;;;;;;;13.50;13.50;;;;;24.19;45.81;100608.31;5034847;28;45297;-68
2022/06/22 10:07:30;;;;;;;;;15.75;15.00;;;;;24.14;45.46;100600.59;5035457;28;45353;-70
2022/06/22 10:10:14;;;;;;;;;15.50;14.25;;;;;24.28;45.55;100617.47;5035467;28;45443;-70
2022/06/22 10:13:04;;;;;;;;;13.75;12.75;;;;;24.31;45.52;100619.91;5020035;28;45361;-70
2022/06/22 10:16:05;;;;;;;;;17.25;16.75;;;;;24.37;45.55;100617.38;5009518;28;45286;-69
2022/06/22 10:18:36;;;;;;;;;16.25;14.25;;;;;24.39;45.95;100609.84;4994675;28;45417;-68
2022/06/22 10:21:32;;;;;;;;;17.25;14.75;;;;;24.51;46.28;100603.06;5032742;28;45466;-69
2022/06/22 10:24:13;;;;;;;;;18.25;16.25;;;;;24.64;46.48;100602.63;5034081;28;45347;-69
2022/06/22 10:26:59;;;;;;;;;18.50;13.75;;;;;24.77;46.21;100607.63;5035307;28;45331;-67
2022/06/22 10:29:40;;;;;;;;;22.00;19.50;;;;;24.90;45.93;100619.00;5035329;28;45358;-68
2022/06/22 10:32:20;;;;;;;;;17.25;15.50;;;;;25.04;45.73;100599.19;5034829;28;45403;-69
2022/06/22 10:34:54;;;;;;;;;13.75;13.75;;;;;25.16;45.54;100594.25;5034695;28;45559;-68
2022/06/22 10:38:07;;;;;;;;;15.50;15.50;;;;;25.29;44.83;100596.50;5035281;28;45463;-69
2022/06/22 10:46:44;;;;;;;;;17.75;16.00;;;;;25.45;44.79;100580.06;5034878;28;45659;-69
2022/06/22 10:49:41;;;;;;;;;19.00;17.00;;;;;25.48;45.15;100577.84;5034950;28;45412;-70
2022/06/22 10:52:10;;;;;;;;;15.25;13.50;;;;;25.55;45.69;100580.75;5035138;28;45237;-69
2022/06/22 10:54:35;;;;;;;;;16.50;13.00;;;;;25.60;45.84;100579.22;5029916;28;45476;-71
2022/06/22 10:57:12;;;;;;;;;13.75;13.75;;;;;25.64;46.07;100568.78;5035368;28;45305;-69
2022/06/22 11:00:10;;;;;;;;;12.50;12.50;;;;;25.68;46.83;100561.94;5034520;28;45447;-71
2022/06/22 11:03:00;;;;;;;;;12.75;12.75;;;;;25.81;45.92;100561.38;5002991;28;45497;-70
2022/06/22 11:05:48;;;;;;;;;18.25;15.25;;;;;25.89;46.30;100564.13;5024681;28;45432;-70
2022/06/22 11:08:22;;;;;;;;;15.00;15.00;;;;;25.99;45.82;100562.06;5034446;28;45388;-70
2022/06/22 11:10:55;;;;;;;;;17.00;15.50;;;;;26.09;46.72;100559.97;5015935;28;45286;-70
2022/06/22 11:13:45;;;;;;;;;25.25;25.25;;;;;26.27;46.36;100570.78;5014856;28;45313;-70
2022/06/22 11:16:13;;;;;;;;;18.75;17.75;;;;;26.40;46.64;100572.97;5014948;28;46118;-69
2022/06/22 11:18:56;;;;;;;;;24.75;22.25;;;;;26.46;46.38;100562.13;5014502;28;46291;-69
2022/06/22 11:21:46;;;;;;;;;20.50;17.00;;;;;26.58;47.47;100568.09;5022709;28;45304;-69
2022/06/22 11:24:39;;;;;;;;;13.75;13.75;;;;;26.60;46.85;100566.03;5029535;28;45763;-70
2022/06/22 11:30:52;;;;;;;;;16.75;16.75;;;;;26.70;47.19;100574.94;5034503;28;45345;-68
2022/06/22 11:33:46;;;;;;;;;11.75;11.00;;;;;26.70;46.99;100578.56;5034143;28;45430;-69
2022/06/22 11:36:20;;;;;;;;;13.25;12.25;;;;;26.78;47.33;100582.28;5034360;28;45478;-69
2022/06/22 11:39:23;;;;;;;;;15.00;13.75;;;;;26.75;46.27;100584.34;5034124;28;45700;-69
2022/06/22 11:42:19;;;;;;;;;9.50;9.25;;;;;26.70;47.03;100586.78;5034163;28;45350;-68
2022/06/22 11:47:59;;;;;;;;;11.75;10.75;;;;;26.66;47.07;100593.69;5023657;28;45498;-70
2022/06/22 11:50:41;;;;;;;;;9.50;9.50;;;;;26.57;47.36;100586.50;5034414;28;45405;-69
2022/06/22 11:53:15;;;;;;;;;12.25;11.00;;;;;26.48;47.60;100570.19;5016081;28;47304;-70
2022/06/22 11:55:49;;;;;;;;;10.75;10.75;;;;;26.44;48.04;100574.34;5034276;28;45606;-70
2022/06/22 11:58:28;;;;;;;;;9.75;9.50;;;;;26.30;48.12;100562.19;5034086;28;45251;-69
2022/06/22 12:01:31;;;;;;;;;13.50;9.75;;;;;26.36;47.78;100569.75;5034119;28;45370;-70
2022/06/22 12:04:18;;;;;;;;;10.75;10.75;;;;;26.32;47.62;100582.97;5033989;28;45379;-70
2022/06/22 12:06:53;;;;;;;;;12.00;12.00;;;;;26.29;47.91;100588.81;5034224;28;45344;-69
2022/06/22 12:09:31;;;;;;;;;13.25;13.25;;;;;26.19;47.55;100579.88;5033849;28;45449;-69
2022/06/22 12:12:04;;;;;;;;;14.00;12.00;;;;;26.19;48.06;100593.63;5023902;28;45471;-70
2022/06/22 12:15:04;;;;;;;;;11.50;10.50;;;;;26.16;48.52;100590.34;5033371;28;46182;-69
2022/06/22 12:17:54;;;;;;;;;12.00;11.75;;;;;26.10;48.23;100591.91;5033850;28;45248;-69
2022/06/22 12:20:34;;;;;;;;;12.00;11.75;;;;;26.10;48.93;100599.31;5033629;28;45522;-70
2022/06/22 12:23:19;;;;;;;;;14.25;12.50;;;;;26.05;49.32;100599.81;5033751;28;45249;-69
2022/06/22 12:26:08;;;;;;;;;13.50;12.00;;;;;26.08;48.87;100604.09;5029706;28;45699;-70
2022/06/22 12:28:59;;;;;;;;;12.25;10.75;;;;;26.12;49.38;100609.06;5013616;28;45281;-71
2022/06/22 12:31:33;;;;;;;;;16.25;11.50;;;;;26.12;48.96;100614.56;5013535;28;45391;-70
2022/06/22 12:34:06;;;;;;;;;12.50;11.50;;;;;26.10;49.09;100605.66;5013423;28;45365;-69
2022/06/22 12:36:44;;;;;;;;;12.75;11.50;;;;;26.08;48.97;100599.47;5013184;28;45327;-70
2022/06/22 12:39:25;;;;;;;;;16.00;11.25;;;;;26.19;49.04;100607.38;5013492;28;45273;-69
2022/06/22 12:42:15;;;;;;;;;13.00;10.00;;;;;26.27;48.72;100603.78;5029354;28;45417;-68
2022/06/22 12:45:11;;;;;;;;;16.25;15.00;;;;;26.33;48.50;100592.94;5033576;28;45238;-69
2022/06/22 12:47:59;;;;;;;;;10.75;10.75;;;;;26.44;48.66;100599.94;5036577;28;46139;-69
2022/06/22 12:50:45;;;;;;;;;11.25;11.25;;;;;26.52;48.57;100599.94;5036640;28;45404;-69
2022/06/22 12:53:20;;;;;;;;;14.25;11.75;;;;;26.58;48.17;100596.47;5018788;28;45421;-69
2022/06/22 12:55:54;;;;;;;;;16.25;12.50;;;;;26.68;47.75;100594.38;5036711;28;45398;-69
2022/06/22 12:58:22;;;;;;;;;12.50;12.00;;;;;26.74;46.98;100596.38;5036793;28;45365;-69
2022/06/22 13:00:49;;;;;;;;;13.25;11.50;;;;;26.79;47.50;100589.50;5036968;28;45416;-69
2022/06/22 13:03:20;;;;;;;;;12.00;12.00;;;;;26.82;47.41;100591.88;5036841;28;45507;-68
2022/06/22 13:05:46;;;;;;;;;13.25;12.50;;;;;26.85;46.96;100592.41;5035565;28;45535;-71
2022/06/22 13:08:17;;;;;;;;;12.00;12.00;;;;;26.86;47.00;100590.50;5030639;28;45765;-69
2022/06/22 13:10:48;;;;;;;;;10.50;10.25;;;;;26.87;47.25;100586.72;5027103;28;45392;-70
2022/06/22 13:13:31;;;;;;;;;15.00;11.00;;;;;26.91;47.16;100590.84;5021838;28;45482;-71
2022/06/22 13:16:11;;;;;;;;;11.50;10.25;;;;;26.89;47.16;100587.38;5035830;28;45406;-71
2022/06/22 13:18:42;;;;;;;;;13.75;10.50;;;;;26.93;47.48;100594.28;5034856;28;45334;-70
2022/06/22 13:21:12;;;;;;;;;11.00;11.00;;;;;26.99;47.33;100583.41;5035620;28;45336;-68
2022/06/22 13:23:47;;;;;;;;;12.50;12.00;;;;;27.11;47.21;100578.34;5036108;28;45341;-70
2022/06/22 13:26:25;;;;;;;;;16.25;11.75;;;;;27.24;46.93;100567.59;5036262;28;45360;-68
2022/06/22 13:29:02;;;;;;;;;13.50;11.25;;;;;27.31;46.23;100560.31;5036197;28;45664;-70
2022/06/22 13:31:33;;;;;;;;;15.75;14.25;;;;;27.34;46.54;100561.84;5017835;28;45335;-69
2022/06/22 13:34:06;;;;;;;;;16.75;15.00;;;;;27.36;46.20;100555.13;5035215;28;45338;-68
2022/06/22 13:36:35;;;;;;;;;14.25;14.25;;;;;27.45;46.10;100553.19;5036110;28;45542;-69
2022/06/22 13:39:18;;;;;;;;;16.75;13.00;;;;;27.58;46.03;100550.69;5035946;28;45507;-69
2022/06/22 13:42:21;;;;;;;;;15.00;14.50;;;;;27.63;45.21;100553.75;5036194;28;45413;-70
2022/06/22 13:45:19;;;;;;;;;14.50;12.75;;;;;27.68;45.35;100543.03;5036230;28;45230;-69
2022/06/22 13:48:21;;;;;;;;;16.75;16.75;;;;;27.77;45.34;100539.16;5036056;28;45412;-69
2022/06/22 13:51:09;;;;;;;;;15.25;14.25;;;;;27.85;45.46;100532.69;5025253;28;45475;-70
2022/06/22 13:54:13;;;;;;;;;16.50;14.50;;;;;27.87;45.40;100525.13;5035657;28;45416;-70
2022/06/22 13:57:01;;;;;;;;;16.50;15.00;;;;;27.90;45.08;100510.97;5034699;28;45359;-67
2022/06/22 13:59:34;;;;;;;;;16.75;16.75;;;;;27.96;45.13;100512.09;5035855;28;45391;-70
2022/06/22 14:02:22;;;;;;;;;17.00;15.50;;;;;27.92;44.92;100497.84;5035900;28;46102;-70
2022/06/22 14:04:58;;;;;;;;;16.50;14.00;;;;;28.22;45.01;100507.03;5035330;28;45464;-70
2022/06/22 14:07:42;;;;;;;;;14.00;13.75;;;;;28.31;44.62;100494.00;5035826;28;45470;-69
2022/06/22 14:10:42;;;;;;;;;16.75;15.25;;;;;28.49;44.34;100497.22;5035745;28;45474;-71
2022/06/22 14:13:27;;;;;;;;;16.25;16.25;;;;;28.62;44.59;100491.84;5014604;28;45494;-69
2022/06/22 14:16:08;;;;;;;;;19.25;14.25;;;;;28.80;44.33;100492.31;5035763;28;45248;-70
2022/06/22 14:18:54;;;;;;;;;16.75;16.75;;;;;28.88;43.42;100483.91;5035646;28;45452;-69
2022/06/22 14:21:34;;;;;;;;;15.25;14.75;;;;;29.04;43.80;100487.47;5035852;28;45340;-70
2022/06/22 14:24:22;;;;;;;;;14.00;14.00;;;;;28.92;43.65;100463.16;5035398;28;46125;-69
2022/06/22 14:27:18;;;;;;;;;13.50;12.75;;;;;29.09;43.14;100474.81;5035621;28;45273;-69
2022/06/22 14:30:19;;;;;;;;;18.00;15.50;;;;;29.15;43.27;100462.97;5035896;28;45495;-70
2022/06/22 14:33:02;;;;;;;;;15.50;13.75;;;;;29.18;43.67;100468.06;5035172;28;45431;-69
2022/06/22 14:35:54;;;;;;;;;17.00;14.25;;;;;29.23;43.08;100453.69;5025876;28;45913;-69
2022/06/22 14:38:35;;;;;;;;;15.00;15.00;;;;;29.31;43.39;100448.88;5035300;28;45458;-72
2022/06/22 14:41:13;;;;;;;;;12.75;12.00;;;;;29.45;43.19;100449.03;5035489;28;45289;-70
2022/06/22 14:43:50;;;;;;;;;13.75;10.50;;;;;29.56;41.89;100446.56;5034487;28;45274;-70
2022/06/22 14:46:30;;;;;;;;;13.50;13.50;;;;;29.72;42.34;100437.13;5035156;28;45369;-68
2022/06/22 14:49:14;;;;;;;;;16.00;11.75;;;;;29.87;41.26;100426.81;5034863;28;45455;-68
2022/06/22 14:51:57;;;;;;;;;10.75;9.50;;;;;30.15;41.13;100435.06;5017070;28;45521;-69
2022/06/22 14:54:28;;;;;;;;;12.50;12.50;;;;;30.47;40.23;100433.50;5034822;28;45359;-69
2022/06/22 14:57:10;;;;;;;;;13.00;13.00;;;;;30.79;39.72;100435.56;5034763;28;47089;-68
2022/06/22 14:59:47;;;;;;;;;14.00;12.50;;;;;30.95;39.48;100445.41;5034479;28;45513;-70
2022/06/22 15:02:24;;;;;;;;;10.50;9.50;;;;;31.21;38.80;100450.16;5035128;28;45507;-70
2022/06/22 15:05:23;;;;;;;;;9.25;8.00;;;;;31.50;37.79;100457.19;5034530;28;45308;-69
2022/06/22 15:08:14;;;;;;;;;12.50;11.50;;;;;31.59;37.19;100439.28;4984678;28;46638;-69
2022/06/22 15:10:48;;;;;;;;;10.00;10.00;;;;;31.69;36.77;100448.06;5031797;28;45492;-69
2022/06/22 15:13:35;;;;;;;;;13.50;10.00;;;;;31.71;36.33;100453.38;5022064;28;45655;-70
2022/06/22 15:16:03;;;;;;;;;12.00;10.75;;;;;31.86;36.24;100460.41;5034247;28;45439;-69
2022/06/22 15:18:47;;;;;;;;;11.25;10.25;;;;;31.76;35.92;100465.53;5034331;28;45286;-69
2022/06/22 15:21:23;;;;;;;;;13.00;11.50;;;;;31.77;36.18;100458.06;5034410;28;45224;-69
2022/06/22 15:24:06;;;;;;;;;11.50;9.00;;;;;31.90;35.74;100467.19;5034206;28;45281;-70
2022/06/22 15:26:51;;;;;;;;;8.75;8.75;;;;;32.09;35.62;100459.06;5034549;28;45396;-70
2022/06/22 15:29:28;;;;;;;;;11.50;10.00;;;;;32.35;34.77;100470.13;5034040;28;46396;-70
2022/06/22 15:32:01;;;;;;;;;13.00;11.00;;;;;32.49;34.61;100482.03;5033790;28;45313;-69
2022/06/22 15:34:41;;;;;;;;;9.50;9.50;;;;;32.55;34.49;100475.59;5016072;28;45585;-70
2022/06/22 15:37:18;;;;;;;;;10.50;9.25;;;;;32.76;33.98;100486.41;5031492;28;45395;-71
2022/06/22 15:40:03;;;;;;;;;12.25;10.75;;;;;32.86;33.56;100483.16;5034058;28;45356;-70
2022/06/22 15:42:40;;;;;;;;;10.00;10.00;;;;;32.86;33.75;100480.38;5034524;28;45514;-69
2022/06/22 15:45:35;;;;;;;;;9.50;9.50;;;;;32.78;34.42;100478.72;5033933;28;45476;-68
2022/06/22 15:48:18;;;;;;;;;14.00;10.50;;;;;32.97;33.97;100476.91;5034205;28;45325;-70
2022/06/22 15:50:49;;;;;;;;;11.25;11.25;;;;;33.17;33.21;100466.53;5015370;28;46272;-68
2022/06/22 15:53:32;;;;;;;;;13.25;10.25;;;;;33.43;32.73;100480.22;5033822;28;45507;-68
2022/06/22 15:56:05;;;;;;;;;9.25;9.00;;;;;33.60;33.22;100477.72;5032702;28;45363;-69
2022/06/22 15:58:38;;;;;;;;;2.00;1.50;;;;;33.45;32.56;100466.09;5033775;28;45368;-68
2022/06/22 16:01:25;;;;;;;;;11.00;10.50;;;;;33.14;33.22;100464.19;5033141;28;45490;-68
2022/06/22 16:04:03;;;;;;;;;9.00;9.00;;;;;32.75;33.82;100473.59;5033665;28;45403;-69
2022/06/22 16:07:11;;;;;;;;;9.75;9.75;;;;;32.34;34.05;100482.28;5033847;28;45439;-69
2022/06/22 16:09:57;;;;;;;;;11.75;10.50;;;;;31.89;34.49;100473.84;4978474;28;45412;-69
2022/06/22 16:13:40;;;;;;;;;9.25;9.25;;;;;31.46;35.52;100456.78;5017507;28;45347;-69
2022/06/22 16:15:43;;;;;;;;;10.25;9.00;;;;;31.33;36.04;100462.31;4999554;28;45621;-70
2022/06/22 16:18:23;;;;;;;;;11.00;10.25;;;;;31.36;36.29;100444.41;5014021;28;45407;-69
2022/06/22 16:20:55;;;;;;;;;10.00;10.00;;;;;31.54;35.49;100450.19;5015653;28;45534;-70
2022/06/22 16:23:45;;;;;;;;;9.00;9.00;;;;;31.55;35.37;100449.97;5017069;28;46385;-69
2022/06/22 16:26:22;;;;;;;;;7.75;7.00;;;;;31.49;35.96;100449.94;5024591;28;45514;-69
2022/06/22 16:28:52;;;;;;;;;7.50;7.00;;;;;31.37;35.48;100455.28;5037435;28;45475;-70
2022/06/22 16:31:37;;;;;;;;;11.50;9.50;;;;;31.14;35.79;100449.28;5037115;28;45482;-70
2022/06/22 16:34:20;;;;;;;;;7.25;7.25;;;;;31.11;35.64;100450.59;5036726;28;46224;-69
2022/06/22 16:37:03;;;;;;;;;9.25;9.25;;;;;31.14;35.83;100449.28;5034154;28;45501;-69
2022/06/22 16:39:56;;;;;;;;;10.50;8.50;;;;;31.08;36.07;100445.44;5036837;28;45371;-69
2022/06/22 16:42:40;;;;;;;;;9.50;9.50;;;;;31.00;35.78;100442.84;5024975;28;45510;-69
2022/06/22 16:45:11;;;;;;;;;13.00;11.75;;;;;31.08;35.82;100447.38;5036866;28;45320;-69
2022/06/22 16:47:46;;;;;;;;;11.25;9.50;;;;;31.12;36.25;100441.22;5036742;28;45461;-70
2022/06/22 16:50:18;;;;;;;;;10.25;10.25;;;;;31.23;35.78;100436.09;5036991;28;45377;-69
2022/06/22 16:52:48;;;;;;;;;12.25;11.00;;;;;31.24;35.28;100432.25;5036696;28;45317;-69
2022/06/22 16:55:20;;;;;;;;;10.50;9.25;;;;;31.39;35.79;100433.75;5036523;28;45446;-67
2022/06/22 16:57:53;;;;;;;;;12.00;12.00;;;;;31.33;35.91;100429.06;5036540;28;45365;-69
2022/06/22 17:00:27;;;;;;;;;11.25;11.25;;;;;31.28;35.72;100437.16;5036446;28;45285;-68